Ralph Wien Memorial Airport Kotzebue US
ICAO: PAOT
IATA:
Category: Medium
Scheduled Services:

Elevation: 14 ft
TransAlt. 18000 ft.

Airport Communications:
ASOS:135.45
ATIS:135.45
ANCHORAGE CNTR:119.2
CTAF:123.6
KOTZEBUE RDO:122.2
TWEB:115.7
UNICOM:122.8

PAOT Zoom In..

Runways:

(A) RW 09 length 5900 ft width 150 ft
ILS 110.70 / hdg 87

(B) RW 18 length 3876 ft width 90 ft
---- / hdg 179

(C) RW 27 length 5900 ft width 150 ft
---- / hdg 267

(D) RW 36 length 3876 ft width 90 ft
---- / hdg 359

Location; PAOT
Day. 19 / Time. 03.53 Zulu
* Altimeter: 29.98
* Temperature: 10° c. 50°f.
* Wind from: 270° Speed 15 kn.
Dewpoint: 08° c.
Visibility: 10 Statute Miles.
Clouds: Overcast 1400 ft.

PAOT 190353Z 27015KT 10SM OVC014 10/08 A2998 RMK AO2 SLP151 T01000078


Wind From 270°
Speed 15 kn.

 
 
jpsmedia.com for Web Design worldairports.se 2018   terms of use